sensor_id;sensor_type;location;lat;lon;timestamp;P1;durP1;ratioP1;P2;durP2;ratioP2
8656;SDS011;4366;50.764;7.184;2024-02-16T00:04:41;2.37;;;1.77;;
8656;SDS011;4366;50.764;7.184;2024-02-16T00:09:43;1.70;;;1.60;;
8656;SDS011;4366;50.764;7.184;2024-02-16T00:14:45;1.77;;;1.67;;
8656;SDS011;4366;50.764;7.184;2024-02-16T00:19:47;4.80;;;2.00;;
8656;SDS011;4366;50.764;7.184;2024-02-16T00:24:49;2.23;;;2.03;;
8656;SDS011;4366;50.764;7.184;2024-02-16T00:29:51;3.27;;;2.10;;
8656;SDS011;4366;50.764;7.184;2024-02-16T00:34:53;2.30;;;2.10;;
8656;SDS011;4366;50.764;7.184;2024-02-16T00:39:55;2.63;;;1.70;;
8656;SDS011;4366;50.764;7.184;2024-02-16T00:44:57;1.97;;;1.80;;
8656;SDS011;4366;50.764;7.184;2024-02-16T00:49:59;1.80;;;1.70;;
8656;SDS011;4366;50.764;7.184;2024-02-16T00:55:01;2.07;;;1.83;;
8656;SDS011;4366;50.764;7.184;2024-02-16T01:00:02;1.97;;;1.83;;
8656;SDS011;4366;50.764;7.184;2024-02-16T01:05:06;3.20;;;1.70;;
8656;SDS011;4366;50.764;7.184;2024-02-16T01:10:08;2.10;;;1.90;;
8656;SDS011;4366;50.764;7.184;2024-02-16T01:15:10;1.73;;;1.63;;
8656;SDS011;4366;50.764;7.184;2024-02-16T01:20:12;2.10;;;1.90;;
8656;SDS011;4366;50.764;7.184;2024-02-16T01:25:14;3.83;;;1.90;;
8656;SDS011;4366;50.764;7.184;2024-02-16T01:30:17;2.57;;;1.80;;
8656;SDS011;4366;50.764;7.184;2024-02-16T01:35:20;1.87;;;1.77;;
8656;SDS011;4366;50.764;7.184;2024-02-16T01:40:21;1.70;;;1.60;;
8656;SDS011;4366;50.764;7.184;2024-02-16T01:45:23;3.00;;;2.00;;
8656;SDS011;4366;50.764;7.184;2024-02-16T01:50:25;1.70;;;1.60;;
8656;SDS011;4366;50.764;7.184;2024-02-16T01:55:27;2.93;;;1.70;;
8656;SDS011;4366;50.764;7.184;2024-02-16T02:00:30;2.30;;;1.47;;
8656;SDS011;4366;50.764;7.184;2024-02-16T02:05:32;1.90;;;1.80;;
8656;SDS011;4366;50.764;7.184;2024-02-16T02:10:34;1.77;;;1.67;;
8656;SDS011;4366;50.764;7.184;2024-02-16T02:15:36;2.07;;;1.87;;
8656;SDS011;4366;50.764;7.184;2024-02-16T02:20:39;2.67;;;1.80;;
8656;SDS011;4366;50.764;7.184;2024-02-16T02:25:41;2.37;;;1.60;;
8656;SDS011;4366;50.764;7.184;2024-02-16T02:30:43;1.57;;;1.47;;
8656;SDS011;4366;50.764;7.184;2024-02-16T02:35:46;1.90;;;1.80;;
8656;SDS011;4366;50.764;7.184;2024-02-16T02:40:48;2.70;;;1.83;;
8656;SDS011;4366;50.764;7.184;2024-02-16T02:45:51;2.00;;;1.90;;
8656;SDS011;4366;50.764;7.184;2024-02-16T02:50:53;1.77;;;1.67;;
8656;SDS011;4366;50.764;7.184;2024-02-16T02:55:55;1.97;;;1.57;;
8656;SDS011;4366;50.764;7.184;2024-02-16T03:00:56;1.77;;;1.63;;
8656;SDS011;4366;50.764;7.184;2024-02-16T03:05:59;3.33;;;1.60;;
8656;SDS011;4366;50.764;7.184;2024-02-16T03:11:01;1.60;;;1.43;;
8656;SDS011;4366;50.764;7.184;2024-02-16T03:16:03;1.47;;;1.33;;
8656;SDS011;4366;50.764;7.184;2024-02-16T03:21:05;1.57;;;1.47;;
8656;SDS011;4366;50.764;7.184;2024-02-16T03:26:13;1.80;;;1.70;;
8656;SDS011;4366;50.764;7.184;2024-02-16T03:31:16;2.20;;;1.70;;
8656;SDS011;4366;50.764;7.184;2024-02-16T03:36:19;2.17;;;1.87;;
8656;SDS011;4366;50.764;7.184;2024-02-16T03:41:22;2.00;;;1.90;;
8656;SDS011;4366;50.764;7.184;2024-02-16T03:46:24;2.00;;;1.90;;
8656;SDS011;4366;50.764;7.184;2024-02-16T03:51:26;2.13;;;1.93;;
8656;SDS011;4366;50.764;7.184;2024-02-16T03:56:29;1.50;;;1.40;;
8656;SDS011;4366;50.764;7.184;2024-02-16T04:01:31;2.57;;;1.70;;
8656;SDS011;4366;50.764;7.184;2024-02-16T04:06:32;1.70;;;1.60;;
8656;SDS011;4366;50.764;7.184;2024-02-16T04:11:34;1.80;;;1.70;;
8656;SDS011;4366;50.764;7.184;2024-02-16T04:16:37;2.20;;;1.60;;
8656;SDS011;4366;50.764;7.184;2024-02-16T04:21:38;1.70;;;1.60;;
8656;SDS011;4366;50.764;7.184;2024-02-16T04:26:40;1.83;;;1.70;;
8656;SDS011;4366;50.764;7.184;2024-02-16T04:31:42;1.57;;;1.47;;
8656;SDS011;4366;50.764;7.184;2024-02-16T04:36:46;2.07;;;1.97;;
8656;SDS011;4366;50.764;7.184;2024-02-16T04:41:48;3.00;;;1.73;;
8656;SDS011;4366;50.764;7.184;2024-02-16T04:46:50;2.47;;;1.70;;
8656;SDS011;4366;50.764;7.184;2024-02-16T04:51:53;2.80;;;1.70;;
8656;SDS011;4366;50.764;7.184;2024-02-16T04:56:55;1.67;;;1.53;;
8656;SDS011;4366;50.764;7.184;2024-02-16T05:01:57;2.13;;;1.70;;
8656;SDS011;4366;50.764;7.184;2024-02-16T05:06:58;2.67;;;2.00;;
8656;SDS011;4366;50.764;7.184;2024-02-16T05:12:00;2.47;;;2.00;;
8656;SDS011;4366;50.764;7.184;2024-02-16T05:17:02;1.50;;;1.40;;
8656;SDS011;4366;50.764;7.184;2024-02-16T05:22:04;2.40;;;1.53;;
8656;SDS011;4366;50.764;7.184;2024-02-16T05:27:06;1.50;;;1.40;;
8656;SDS011;4366;50.764;7.184;2024-02-16T05:32:08;1.60;;;1.50;;
8656;SDS011;4366;50.764;7.184;2024-02-16T05:37:09;1.33;;;1.33;;
8656;SDS011;4366;50.764;7.184;2024-02-16T05:42:11;1.97;;;1.77;;
8656;SDS011;4366;50.764;7.184;2024-02-16T05:47:13;2.60;;;1.47;;
8656;SDS011;4366;50.764;7.184;2024-02-16T05:52:16;1.57;;;1.47;;
8656;SDS011;4366;50.764;7.184;2024-02-16T05:57:22;1.40;;;1.30;;
8656;SDS011;4366;50.764;7.184;2024-02-16T06:02:25;2.23;;;1.43;;
8656;SDS011;4366;50.764;7.184;2024-02-16T06:07:28;1.85;;;1.67;;
8656;SDS011;4366;50.764;7.184;2024-02-16T06:12:30;1.67;;;1.57;;
8656;SDS011;4366;50.764;7.184;2024-02-16T06:17:32;1.47;;;1.43;;
8656;SDS011;4366;50.764;7.184;2024-02-16T06:22:34;1.57;;;1.47;;
8656;SDS011;4366;50.764;7.184;2024-02-16T06:27:36;1.63;;;1.57;;
8656;SDS011;4366;50.764;7.184;2024-02-16T06:32:41;1.67;;;1.57;;
8656;SDS011;4366;50.764;7.184;2024-02-16T06:37:43;1.40;;;1.30;;
8656;SDS011;4366;50.764;7.184;2024-02-16T06:42:45;2.10;;;1.30;;
8656;SDS011;4366;50.764;7.184;2024-02-16T06:47:47;1.90;;;1.80;;
8656;SDS011;4366;50.764;7.184;2024-02-16T06:52:49;2.60;;;1.70;;
8656;SDS011;4366;50.764;7.184;2024-02-16T06:57:51;1.53;;;1.47;;
8656;SDS011;4366;50.764;7.184;2024-02-16T07:02:52;2.30;;;1.80;;
8656;SDS011;4366;50.764;7.184;2024-02-16T07:07:54;2.00;;;1.80;;
8656;SDS011;4366;50.764;7.184;2024-02-16T07:12:56;2.10;;;1.67;;
8656;SDS011;4366;50.764;7.184;2024-02-16T07:17:57;1.97;;;1.70;;
8656;SDS011;4366;50.764;7.184;2024-02-16T07:23:00;3.57;;;1.67;;
8656;SDS011;4366;50.764;7.184;2024-02-16T07:28:02;2.23;;;1.90;;
8656;SDS011;4366;50.764;7.184;2024-02-16T07:33:06;1.70;;;1.60;;
8656;SDS011;4366;50.764;7.184;2024-02-16T07:38:08;1.97;;;1.80;;
8656;SDS011;4366;50.764;7.184;2024-02-16T07:43:10;2.83;;;1.63;;
8656;SDS011;4366;50.764;7.184;2024-02-16T07:48:12;1.63;;;1.53;;
8656;SDS011;4366;50.764;7.184;2024-02-16T07:53:14;2.63;;;1.80;;
8656;SDS011;4366;50.764;7.184;2024-02-16T07:58:16;2.03;;;1.83;;
8656;SDS011;4366;50.764;7.184;2024-02-16T08:03:17;1.90;;;1.80;;
8656;SDS011;4366;50.764;7.184;2024-02-16T08:08:23;2.00;;;1.90;;
8656;SDS011;4366;50.764;7.184;2024-02-16T08:13:25;1.73;;;1.60;;
8656;SDS011;4366;50.764;7.184;2024-02-16T08:18:27;2.07;;;1.90;;
8656;SDS011;4366;50.764;7.184;2024-02-16T08:23:29;1.60;;;1.50;;
8656;SDS011;4366;50.764;7.184;2024-02-16T08:28:31;1.70;;;1.60;;
8656;SDS011;4366;50.764;7.184;2024-02-16T08:33:33;1.83;;;1.73;;
8656;SDS011;4366;50.764;7.184;2024-02-16T08:38:38;1.77;;;1.67;;
8656;SDS011;4366;50.764;7.184;2024-02-16T08:43:40;2.00;;;1.77;;
8656;SDS011;4366;50.764;7.184;2024-02-16T08:48:44;2.13;;;1.77;;
8656;SDS011;4366;50.764;7.184;2024-02-16T08:53:47;2.07;;;1.70;;
8656;SDS011;4366;50.764;7.184;2024-02-16T08:58:49;2.00;;;1.90;;
8656;SDS011;4366;50.764;7.184;2024-02-16T09:03:51;1.70;;;1.60;;
8656;SDS011;4366;50.764;7.184;2024-02-16T09:08:56;2.40;;;2.00;;
8656;SDS011;4366;50.764;7.184;2024-02-16T09:13:58;1.70;;;1.60;;
8656;SDS011;4366;50.764;7.184;2024-02-16T09:18:59;2.10;;;1.93;;
8656;SDS011;4366;50.764;7.184;2024-02-16T09:24:01;1.80;;;1.60;;
8656;SDS011;4366;50.764;7.184;2024-02-16T09:29:05;1.80;;;1.67;;
8656;SDS011;4366;50.764;7.184;2024-02-16T09:34:07;2.53;;;1.90;;
8656;SDS011;4366;50.764;7.184;2024-02-16T09:39:09;1.53;;;1.43;;
8656;SDS011;4366;50.764;7.184;2024-02-16T09:44:11;2.00;;;1.80;;
8656;SDS011;4366;50.764;7.184;2024-02-16T09:49:13;2.47;;;1.80;;
8656;SDS011;4366;50.764;7.184;2024-02-16T09:54:15;1.83;;;1.70;;
8656;SDS011;4366;50.764;7.184;2024-02-16T09:59:17;3.80;;;1.90;;
8656;SDS011;4366;50.764;7.184;2024-02-16T10:04:18;2.23;;;1.90;;
8656;SDS011;4366;50.764;7.184;2024-02-16T10:09:23;1.70;;;1.60;;
8656;SDS011;4366;50.764;7.184;2024-02-16T10:14:26;1.80;;;1.70;;
8656;SDS011;4366;50.764;7.184;2024-02-16T10:19:27;2.50;;;1.80;;
8656;SDS011;4366;50.764;7.184;2024-02-16T10:24:30;2.47;;;1.77;;
8656;SDS011;4366;50.764;7.184;2024-02-16T10:29:31;2.37;;;1.80;;
8656;SDS011;4366;50.764;7.184;2024-02-16T10:34:34;1.50;;;1.40;;
8656;SDS011;4366;50.764;7.184;2024-02-16T10:39:37;2.07;;;1.83;;
8656;SDS011;4366;50.764;7.184;2024-02-16T10:44:41;1.93;;;1.60;;
8656;SDS011;4366;50.764;7.184;2024-02-16T10:49:44;2.77;;;1.97;;
8656;SDS011;4366;50.764;7.184;2024-02-16T10:54:46;1.80;;;1.70;;
8656;SDS011;4366;50.764;7.184;2024-02-16T10:59:49;1.83;;;1.63;;
8656;SDS011;4366;50.764;7.184;2024-02-16T11:04:55;2.13;;;1.93;;
8656;SDS011;4366;50.764;7.184;2024-02-16T11:09:59;3.57;;;1.90;;
8656;SDS011;4366;50.764;7.184;2024-02-16T11:15:01;1.70;;;1.60;;
8656;SDS011;4366;50.764;7.184;2024-02-16T11:20:02;1.73;;;1.63;;
8656;SDS011;4366;50.764;7.184;2024-02-16T11:25:04;2.07;;;1.60;;
8656;SDS011;4366;50.764;7.184;2024-02-16T11:30:09;2.10;;;1.90;;
8656;SDS011;4366;50.764;7.184;2024-02-16T11:35:12;2.10;;;1.83;;
8656;SDS011;4366;50.764;7.184;2024-02-16T11:40:14;1.60;;;1.50;;
8656;SDS011;4366;50.764;7.184;2024-02-16T11:45:16;2.50;;;1.63;;
8656;SDS011;4366;50.764;7.184;2024-02-16T11:50:18;3.47;;;2.00;;
8656;SDS011;4366;50.764;7.184;2024-02-16T11:55:20;2.07;;;1.87;;
8656;SDS011;4366;50.764;7.184;2024-02-16T12:00:22;3.30;;;1.70;;
8656;SDS011;4366;50.764;7.184;2024-02-16T12:05:24;1.70;;;1.60;;
8656;SDS011;4366;50.764;7.184;2024-02-16T12:10:26;1.93;;;1.70;;
8656;SDS011;4366;50.764;7.184;2024-02-16T12:15:29;1.63;;;1.53;;
8656;SDS011;4366;50.764;7.184;2024-02-16T12:20:32;2.83;;;1.73;;
8656;SDS011;4366;50.764;7.184;2024-02-16T12:25:34;1.63;;;1.53;;
8656;SDS011;4366;50.764;7.184;2024-02-16T12:30:35;1.77;;;1.67;;
8656;SDS011;4366;50.764;7.184;2024-02-16T12:35:39;3.67;;;2.03;;
8656;SDS011;4366;50.764;7.184;2024-02-16T12:40:41;1.87;;;1.77;;
8656;SDS011;4366;50.764;7.184;2024-02-16T12:45:43;2.00;;;1.63;;
8656;SDS011;4366;50.764;7.184;2024-02-16T12:50:44;2.07;;;1.90;;
8656;SDS011;4366;50.764;7.184;2024-02-16T12:55:48;1.60;;;1.50;;
8656;SDS011;4366;50.764;7.184;2024-02-16T13:00:50;1.60;;;1.50;;
8656;SDS011;4366;50.764;7.184;2024-02-16T13:05:52;2.40;;;1.87;;
8656;SDS011;4366;50.764;7.184;2024-02-16T13:10:54;2.00;;;1.80;;
8656;SDS011;4366;50.764;7.184;2024-02-16T13:15:55;1.90;;;1.80;;
8656;SDS011;4366;50.764;7.184;2024-02-16T13:20:59;1.70;;;1.60;;
8656;SDS011;4366;50.764;7.184;2024-02-16T13:26:01;1.83;;;1.53;;
8656;SDS011;4366;50.764;7.184;2024-02-16T13:31:03;3.63;;;2.00;;
8656;SDS011;4366;50.764;7.184;2024-02-16T13:36:05;4.20;;;2.00;;
8656;SDS011;4366;50.764;7.184;2024-02-16T13:41:07;2.73;;;2.03;;
8656;SDS011;4366;50.764;7.184;2024-02-16T13:46:09;2.83;;;2.20;;
8656;SDS011;4366;50.764;7.184;2024-02-16T13:51:10;3.27;;;2.30;;
8656;SDS011;4366;50.764;7.184;2024-02-16T13:56:13;2.80;;;2.60;;
8656;SDS011;4366;50.764;7.184;2024-02-16T14:01:15;2.37;;;2.10;;
8656;SDS011;4366;50.764;7.184;2024-02-16T14:06:17;3.97;;;2.60;;
8656;SDS011;4366;50.764;7.184;2024-02-16T14:11:19;3.03;;;2.67;;
8656;SDS011;4366;50.764;7.184;2024-02-16T14:16:21;2.33;;;2.23;;
8656;SDS011;4366;50.764;7.184;2024-02-16T14:21:23;2.80;;;2.40;;
8656;SDS011;4366;50.764;7.184;2024-02-16T14:26:28;2.60;;;2.40;;
8656;SDS011;4366;50.764;7.184;2024-02-16T14:31:30;2.40;;;2.20;;
8656;SDS011;4366;50.764;7.184;2024-02-16T14:36:32;2.37;;;2.17;;
8656;SDS011;4366;50.764;7.184;2024-02-16T14:41:33;2.70;;;2.50;;
8656;SDS011;4366;50.764;7.184;2024-02-16T14:46:35;2.63;;;2.43;;
8656;SDS011;4366;50.764;7.184;2024-02-16T14:51:40;2.17;;;2.07;;
8656;SDS011;4366;50.764;7.184;2024-02-16T14:56:43;3.00;;;2.60;;
8656;SDS011;4366;50.764;7.184;2024-02-16T15:01:45;3.63;;;2.40;;
8656;SDS011;4366;50.764;7.184;2024-02-16T15:06:47;2.60;;;2.40;;
8656;SDS011;4366;50.764;7.184;2024-02-16T15:11:49;2.23;;;2.13;;
8656;SDS011;4366;50.764;7.184;2024-02-16T15:16:51;2.70;;;2.50;;
8656;SDS011;4366;50.764;7.184;2024-02-16T15:21:54;2.53;;;2.33;;
8656;SDS011;4366;50.764;7.184;2024-02-16T15:26:56;2.60;;;2.40;;
8656;SDS011;4366;50.764;7.184;2024-02-16T15:31:58;3.97;;;2.80;;
8656;SDS011;4366;50.764;7.184;2024-02-16T15:37:01;2.43;;;2.33;;
8656;SDS011;4366;50.764;7.184;2024-02-16T15:42:03;3.17;;;2.30;;
8656;SDS011;4366;50.764;7.184;2024-02-16T15:47:05;2.50;;;2.23;;
8656;SDS011;4366;50.764;7.184;2024-02-16T15:52:07;3.90;;;2.77;;
8656;SDS011;4366;50.764;7.184;2024-02-16T15:57:10;2.53;;;2.30;;
8656;SDS011;4366;50.764;7.184;2024-02-16T16:02:13;3.63;;;2.70;;
8656;SDS011;4366;50.764;7.184;2024-02-16T16:07:15;4.30;;;2.80;;
8656;SDS011;4366;50.764;7.184;2024-02-16T16:12:17;2.57;;;2.37;;
8656;SDS011;4366;50.764;7.184;2024-02-16T16:17:20;3.03;;;2.60;;
8656;SDS011;4366;50.764;7.184;2024-02-16T16:22:22;3.47;;;3.07;;
8656;SDS011;4366;50.764;7.184;2024-02-16T16:27:24;4.07;;;2.93;;
8656;SDS011;4366;50.764;7.184;2024-02-16T16:32:26;5.07;;;3.43;;
8656;SDS011;4366;50.764;7.184;2024-02-16T16:37:28;4.30;;;3.83;;
8656;SDS011;4366;50.764;7.184;2024-02-16T16:42:30;3.93;;;3.37;;
8656;SDS011;4366;50.764;7.184;2024-02-16T16:47:34;3.63;;;3.23;;
8656;SDS011;4366;50.764;7.184;2024-02-16T16:52:36;5.87;;;5.27;;
8656;SDS011;4366;50.764;7.184;2024-02-16T16:57:40;5.93;;;4.50;;
8656;SDS011;4366;50.764;7.184;2024-02-16T17:02:42;4.73;;;3.80;;
8656;SDS011;4366;50.764;7.184;2024-02-16T17:07:45;3.00;;;2.67;;
8656;SDS011;4366;50.764;7.184;2024-02-16T17:12:47;2.20;;;2.00;;
8656;SDS011;4366;50.764;7.184;2024-02-16T17:17:49;2.97;;;2.30;;
8656;SDS011;4366;50.764;7.184;2024-02-16T17:22:56;2.10;;;1.80;;
8656;SDS011;4366;50.764;7.184;2024-02-16T17:27:59;2.17;;;2.07;;
8656;SDS011;4366;50.764;7.184;2024-02-16T17:33:01;4.50;;;4.10;;
8656;SDS011;4366;50.764;7.184;2024-02-16T17:38:03;3.10;;;2.83;;
8656;SDS011;4366;50.764;7.184;2024-02-16T17:43:05;4.40;;;4.00;;
8656;SDS011;4366;50.764;7.184;2024-02-16T17:48:07;4.10;;;3.80;;
8656;SDS011;4366;50.764;7.184;2024-02-16T17:53:09;5.60;;;4.27;;
8656;SDS011;4366;50.764;7.184;2024-02-16T17:58:11;5.07;;;4.67;;
8656;SDS011;4366;50.764;7.184;2024-02-16T18:03:13;5.10;;;4.60;;
8656;SDS011;4366;50.764;7.184;2024-02-16T18:08:14;4.25;;;3.90;;
8656;SDS011;4366;50.764;7.184;2024-02-16T18:13:16;4.03;;;3.73;;
8656;SDS011;4366;50.764;7.184;2024-02-16T18:18:22;4.10;;;3.80;;
8656;SDS011;4366;50.764;7.184;2024-02-16T18:23:25;4.33;;;3.93;;
8656;SDS011;4366;50.764;7.184;2024-02-16T18:28:29;4.23;;;3.90;;
8656;SDS011;4366;50.764;7.184;2024-02-16T18:33:45;4.90;;;4.50;;
8656;SDS011;4366;50.764;7.184;2024-02-16T18:38:47;5.97;;;5.47;;
8656;SDS011;4366;50.764;7.184;2024-02-16T18:43:49;6.13;;;5.53;;
8656;SDS011;4366;50.764;7.184;2024-02-16T18:48:50;7.60;;;6.73;;
8656;SDS011;4366;50.764;7.184;2024-02-16T18:53:52;5.63;;;5.13;;
8656;SDS011;4366;50.764;7.184;2024-02-16T18:58:56;6.27;;;5.67;;
8656;SDS011;4366;50.764;7.184;2024-02-16T19:03:59;5.57;;;5.07;;
8656;SDS011;4366;50.764;7.184;2024-02-16T19:09:01;5.07;;;4.57;;
8656;SDS011;4366;50.764;7.184;2024-02-16T19:14:03;5.27;;;4.80;;
8656;SDS011;4366;50.764;7.184;2024-02-16T19:19:04;5.43;;;4.93;;
8656;SDS011;4366;50.764;7.184;2024-02-16T19:24:06;6.03;;;5.33;;
8656;SDS011;4366;50.764;7.184;2024-02-16T19:29:10;6.90;;;5.30;;
8656;SDS011;4366;50.764;7.184;2024-02-16T19:34:11;7.47;;;6.67;;
8656;SDS011;4366;50.764;7.184;2024-02-16T19:39:13;7.40;;;6.67;;
8656;SDS011;4366;50.764;7.184;2024-02-16T19:44:18;8.00;;;6.50;;
8656;SDS011;4366;50.764;7.184;2024-02-16T19:49:23;6.97;;;6.23;;
8656;SDS011;4366;50.764;7.184;2024-02-16T19:54:25;7.13;;;6.17;;
8656;SDS011;4366;50.764;7.184;2024-02-16T19:59:27;5.60;;;5.00;;
8656;SDS011;4366;50.764;7.184;2024-02-16T20:04:29;5.03;;;4.53;;
8656;SDS011;4366;50.764;7.184;2024-02-16T20:09:31;4.13;;;3.73;;
8656;SDS011;4366;50.764;7.184;2024-02-16T20:14:33;4.37;;;3.97;;
8656;SDS011;4366;50.764;7.184;2024-02-16T20:19:35;5.17;;;4.67;;
8656;SDS011;4366;50.764;7.184;2024-02-16T20:24:37;5.27;;;4.77;;
8656;SDS011;4366;50.764;7.184;2024-02-16T20:29:40;5.87;;;5.27;;
8656;SDS011;4366;50.764;7.184;2024-02-16T20:34:42;8.53;;;5.73;;
8656;SDS011;4366;50.764;7.184;2024-02-16T20:39:43;6.80;;;5.80;;
8656;SDS011;4366;50.764;7.184;2024-02-16T20:44:46;5.03;;;4.63;;
8656;SDS011;4366;50.764;7.184;2024-02-16T20:49:48;5.90;;;5.17;;
8656;SDS011;4366;50.764;7.184;2024-02-16T20:54:50;5.33;;;4.83;;
8656;SDS011;4366;50.764;7.184;2024-02-16T20:59:52;5.97;;;5.10;;
8656;SDS011;4366;50.764;7.184;2024-02-16T21:04:54;5.30;;;4.80;;
8656;SDS011;4366;50.764;7.184;2024-02-16T21:09:56;5.10;;;4.40;;
8656;SDS011;4366;50.764;7.184;2024-02-16T21:14:59;5.33;;;4.83;;
8656;SDS011;4366;50.764;7.184;2024-02-16T21:20:02;5.63;;;5.13;;
8656;SDS011;4366;50.764;7.184;2024-02-16T21:25:06;5.97;;;5.37;;
8656;SDS011;4366;50.764;7.184;2024-02-16T21:30:10;5.30;;;4.80;;
8656;SDS011;4366;50.764;7.184;2024-02-16T21:35:12;6.33;;;5.30;;
8656;SDS011;4366;50.764;7.184;2024-02-16T21:40:21;7.23;;;5.90;;
8656;SDS011;4366;50.764;7.184;2024-02-16T21:45:24;5.97;;;5.40;;
8656;SDS011;4366;50.764;7.184;2024-02-16T21:50:26;6.53;;;5.83;;
8656;SDS011;4366;50.764;7.184;2024-02-16T21:55:30;5.80;;;5.20;;
8656;SDS011;4366;50.764;7.184;2024-02-16T22:00:31;7.13;;;5.83;;
8656;SDS011;4366;50.764;7.184;2024-02-16T22:05:33;6.60;;;5.67;;
8656;SDS011;4366;50.764;7.184;2024-02-16T22:10:36;5.97;;;5.37;;
8656;SDS011;4366;50.764;7.184;2024-02-16T22:15:39;7.60;;;5.87;;
8656;SDS011;4366;50.764;7.184;2024-02-16T22:20:47;6.13;;;5.47;;
8656;SDS011;4366;50.764;7.184;2024-02-16T22:25:48;7.70;;;6.77;;
8656;SDS011;4366;50.764;7.184;2024-02-16T22:30:50;6.67;;;5.93;;
8656;SDS011;4366;50.764;7.184;2024-02-16T22:35:52;6.40;;;5.70;;
8656;SDS011;4366;50.764;7.184;2024-02-16T22:40:54;6.60;;;5.47;;
8656;SDS011;4366;50.764;7.184;2024-02-16T22:45:56;6.37;;;5.70;;
8656;SDS011;4366;50.764;7.184;2024-02-16T22:50:58;7.47;;;6.53;;
8656;SDS011;4366;50.764;7.184;2024-02-16T22:55:59;6.73;;;6.00;;
8656;SDS011;4366;50.764;7.184;2024-02-16T23:01:01;8.17;;;6.93;;
8656;SDS011;4366;50.764;7.184;2024-02-16T23:06:03;8.07;;;6.17;;
8656;SDS011;4366;50.764;7.184;2024-02-16T23:11:05;8.50;;;6.37;;
8656;SDS011;4366;50.764;7.184;2024-02-16T23:16:08;6.87;;;5.77;;
8656;SDS011;4366;50.764;7.184;2024-02-16T23:21:10;8.47;;;6.87;;
8656;SDS011;4366;50.764;7.184;2024-02-16T23:26:12;8.57;;;7.27;;
8656;SDS011;4366;50.764;7.184;2024-02-16T23:31:15;9.27;;;7.13;;
8656;SDS011;4366;50.764;7.184;2024-02-16T23:36:19;10.07;;;7.43;;
8656;SDS011;4366;50.764;7.184;2024-02-16T23:41:24;12.47;;;8.77;;
8656;SDS011;4366;50.764;7.184;2024-02-16T23:46:26;14.83;;;9.57;;
8656;SDS011;4366;50.764;7.184;2024-02-16T23:51:28;11.20;;;8.50;;
8656;SDS011;4366;50.764;7.184;2024-02-16T23:56:30;9.60;;;7.13;;
